Steprock, Arkansas
Current Conditions -  °F | °C
As of 1:56 AM on Sunday 23 Nov 2014 (Local Time) from KSRC Reporting Station
Few Clouds Few Clouds  
Wind Chill: 55°   Ceiling: Unl
Heat Index: 55°   Visibility: 10mi
Dew Point: 50°   Wind: 6mph
Humidity: 83%   Direction: 130°SE
Pressure: 29.8"   Gusts: NA
Location:  35.43°N, 91.69°W
Report Text: KSRC 230756Z AUTO 13005KT 10SM FEW060 13/10 A2980 RMK AO2 SLP097 T01280100 TSNO
Loading
Personal Weather Stations






























Interactive Weather Map New forecast layout! Learn more

10-Day Weather Forecast

Advertisements
Track Severe Weather on mobile